sensor_id;sensor_type;location;lat;lon;timestamp;temperature;humidity
16417;DHT22;8317;52.186;5.688;2022-12-18T00:00:58;-3.00;99.90
16417;DHT22;8317;52.186;5.688;2022-12-18T00:03:25;-3.00;99.90
16417;DHT22;8317;52.186;5.688;2022-12-18T00:05:52;-3.10;99.90
16417;DHT22;8317;52.186;5.688;2022-12-18T00:08:19;-3.10;99.90
16417;DHT22;8317;52.186;5.688;2022-12-18T00:10:47;-3.00;99.90
16417;DHT22;8317;52.186;5.688;2022-12-18T00:13:14;-3.00;99.90
16417;DHT22;8317;52.186;5.688;2022-12-18T00:15:41;-3.00;99.90
16417;DHT22;8317;52.186;5.688;2022-12-18T00:18:09;-3.10;99.90
16417;DHT22;8317;52.186;5.688;2022-12-18T00:20:36;-3.10;99.90
16417;DHT22;8317;52.186;5.688;2022-12-18T00:23:04;-3.10;99.90
16417;DHT22;8317;52.186;5.688;2022-12-18T00:25:32;-3.20;99.90
16417;DHT22;8317;52.186;5.688;2022-12-18T00:28:01;-3.30;99.90
16417;DHT22;8317;52.186;5.688;2022-12-18T00:30:27;-3.20;99.90
16417;DHT22;8317;52.186;5.688;2022-12-18T00:32:54;-3.20;99.90
16417;DHT22;8317;52.186;5.688;2022-12-18T00:35:22;-3.20;99.90
16417;DHT22;8317;52.186;5.688;2022-12-18T00:37:48;-3.30;99.90
16417;DHT22;8317;52.186;5.688;2022-12-18T00:40:16;-3.20;99.90
16417;DHT22;8317;52.186;5.688;2022-12-18T00:42:43;-3.30;99.90
16417;DHT22;8317;52.186;5.688;2022-12-18T00:45:22;-3.30;99.90
16417;DHT22;8317;52.186;5.688;2022-12-18T00:47:49;-3.10;99.90
16417;DHT22;8317;52.186;5.688;2022-12-18T00:50:16;-3.10;99.90
16417;DHT22;8317;52.186;5.688;2022-12-18T00:52:43;-3.10;99.90
16417;DHT22;8317;52.186;5.688;2022-12-18T00:55:11;-3.10;99.90
16417;DHT22;8317;52.186;5.688;2022-12-18T00:57:38;-3.30;99.90
16417;DHT22;8317;52.186;5.688;2022-12-18T01:00:07;-3.20;99.90
16417;DHT22;8317;52.186;5.688;2022-12-18T01:02:36;-3.30;99.90
16417;DHT22;8317;52.186;5.688;2022-12-18T01:05:03;-3.30;99.90
16417;DHT22;8317;52.186;5.688;2022-12-18T01:07:30;-3.40;99.90
16417;DHT22;8317;52.186;5.688;2022-12-18T01:09:57;-3.40;99.90
16417;DHT22;8317;52.186;5.688;2022-12-18T01:12:24;-3.40;99.90
16417;DHT22;8317;52.186;5.688;2022-12-18T01:14:51;-3.40;99.90
16417;DHT22;8317;52.186;5.688;2022-12-18T01:17:18;-3.50;99.90
16417;DHT22;8317;52.186;5.688;2022-12-18T01:19:47;-3.60;99.90
16417;DHT22;8317;52.186;5.688;2022-12-18T01:22:14;-3.80;99.90
16417;DHT22;8317;52.186;5.688;2022-12-18T01:24:41;-3.80;99.90
16417;DHT22;8317;52.186;5.688;2022-12-18T01:27:08;-3.80;99.90
16417;DHT22;8317;52.186;5.688;2022-12-18T01:29:34;-3.90;99.90
16417;DHT22;8317;52.186;5.688;2022-12-18T01:32:01;-3.80;99.90
16417;DHT22;8317;52.186;5.688;2022-12-18T01:34:28;-3.90;99.90
16417;DHT22;8317;52.186;5.688;2022-12-18T01:36:56;-3.90;99.90
16417;DHT22;8317;52.186;5.688;2022-12-18T01:39:23;-3.90;99.90
16417;DHT22;8317;52.186;5.688;2022-12-18T01:41:50;-3.90;99.90
16417;DHT22;8317;52.186;5.688;2022-12-18T01:44:59;-3.90;99.90
16417;DHT22;8317;52.186;5.688;2022-12-18T01:47:30;-3.90;99.90
16417;DHT22;8317;52.186;5.688;2022-12-18T01:50:00;-3.90;99.90
16417;DHT22;8317;52.186;5.688;2022-12-18T01:52:31;-3.90;99.90
16417;DHT22;8317;52.186;5.688;2022-12-18T01:54:59;-4.00;99.90
16417;DHT22;8317;52.186;5.688;2022-12-18T01:57:28;-4.00;99.90
16417;DHT22;8317;52.186;5.688;2022-12-18T02:00:00;-4.00;99.90
16417;DHT22;8317;52.186;5.688;2022-12-18T02:02:30;-4.00;99.90
16417;DHT22;8317;52.186;5.688;2022-12-18T02:04:58;-4.00;99.90
16417;DHT22;8317;52.186;5.688;2022-12-18T02:07:32;-4.00;99.90
16417;DHT22;8317;52.186;5.688;2022-12-18T02:10:06;-4.00;99.90
16417;DHT22;8317;52.186;5.688;2022-12-18T02:12:39;-4.00;99.90
16417;DHT22;8317;52.186;5.688;2022-12-18T02:15:13;-4.00;99.90
16417;DHT22;8317;52.186;5.688;2022-12-18T02:17:43;-4.10;99.90
16417;DHT22;8317;52.186;5.688;2022-12-18T02:20:15;-4.00;99.90
16417;DHT22;8317;52.186;5.688;2022-12-18T02:22:53;-4.10;99.90
16417;DHT22;8317;52.186;5.688;2022-12-18T02:25:41;-4.10;99.90
16417;DHT22;8317;52.186;5.688;2022-12-18T02:28:15;-4.10;99.90
16417;DHT22;8317;52.186;5.688;2022-12-18T02:30:46;-4.20;99.90
16417;DHT22;8317;52.186;5.688;2022-12-18T02:33:14;-4.30;99.90
16417;DHT22;8317;52.186;5.688;2022-12-18T02:35:43;-4.30;99.90
16417;DHT22;8317;52.186;5.688;2022-12-18T02:38:12;-4.30;99.90
16417;DHT22;8317;52.186;5.688;2022-12-18T02:40:40;-4.30;99.90
16417;DHT22;8317;52.186;5.688;2022-12-18T02:43:09;-4.30;99.90
16417;DHT22;8317;52.186;5.688;2022-12-18T02:45:46;-4.20;99.90
16417;DHT22;8317;52.186;5.688;2022-12-18T02:48:13;-4.30;99.90
16417;DHT22;8317;52.186;5.688;2022-12-18T02:50:47;-4.30;99.90
16417;DHT22;8317;52.186;5.688;2022-12-18T02:53:21;-4.30;99.90
16417;DHT22;8317;52.186;5.688;2022-12-18T02:55:58;-4.30;99.90
16417;DHT22;8317;52.186;5.688;2022-12-18T02:58:33;-4.40;99.90
16417;DHT22;8317;52.186;5.688;2022-12-18T03:01:09;-4.50;99.90
16417;DHT22;8317;52.186;5.688;2022-12-18T03:03:41;-4.50;99.90
16417;DHT22;8317;52.186;5.688;2022-12-18T03:06:14;-4.50;99.90
16417;DHT22;8317;52.186;5.688;2022-12-18T03:08:46;-4.50;99.90
16417;DHT22;8317;52.186;5.688;2022-12-18T03:11:15;-4.50;99.90
16417;DHT22;8317;52.186;5.688;2022-12-18T03:14:04;-4.50;99.90
16417;DHT22;8317;52.186;5.688;2022-12-18T03:16:34;-4.60;99.90
16417;DHT22;8317;52.186;5.688;2022-12-18T03:19:05;-4.60;99.90
16417;DHT22;8317;52.186;5.688;2022-12-18T03:21:35;-4.60;99.90
16417;DHT22;8317;52.186;5.688;2022-12-18T03:24:06;-4.60;99.90
16417;DHT22;8317;52.186;5.688;2022-12-18T03:26:36;-4.70;99.90
16417;DHT22;8317;52.186;5.688;2022-12-18T03:29:12;-4.70;99.90
16417;DHT22;8317;52.186;5.688;2022-12-18T03:31:48;-4.70;99.90
16417;DHT22;8317;52.186;5.688;2022-12-18T03:34:21;-4.70;99.90
16417;DHT22;8317;52.186;5.688;2022-12-18T03:36:49;-4.80;99.90
16417;DHT22;8317;52.186;5.688;2022-12-18T03:39:16;-5.00;99.90
16417;DHT22;8317;52.186;5.688;2022-12-18T03:41:44;-5.00;99.90
16417;DHT22;8317;52.186;5.688;2022-12-18T03:44:18;-5.00;99.90
16417;DHT22;8317;52.186;5.688;2022-12-18T03:46:55;-5.00;99.90
16417;DHT22;8317;52.186;5.688;2022-12-18T03:49:27;-5.00;99.90
16417;DHT22;8317;52.186;5.688;2022-12-18T03:52:01;-5.00;99.90
16417;DHT22;8317;52.186;5.688;2022-12-18T03:54:30;-5.00;99.90
16417;DHT22;8317;52.186;5.688;2022-12-18T03:57:01;-5.00;99.90
16417;DHT22;8317;52.186;5.688;2022-12-18T03:59:30;-5.00;99.90
16417;DHT22;8317;52.186;5.688;2022-12-18T04:02:00;-5.00;99.90
16417;DHT22;8317;52.186;5.688;2022-12-18T04:04:29;-5.00;99.90
16417;DHT22;8317;52.186;5.688;2022-12-18T04:06:58;-5.00;99.90
16417;DHT22;8317;52.186;5.688;2022-12-18T04:09:25;-5.00;99.90
16417;DHT22;8317;52.186;5.688;2022-12-18T04:11:52;-5.00;99.90
16417;DHT22;8317;52.186;5.688;2022-12-18T04:14:19;-5.00;99.90
16417;DHT22;8317;52.186;5.688;2022-12-18T04:16:46;-5.00;99.90
16417;DHT22;8317;52.186;5.688;2022-12-18T04:19:14;-5.00;99.90
16417;DHT22;8317;52.186;5.688;2022-12-18T04:21:41;-5.00;99.90
16417;DHT22;8317;52.186;5.688;2022-12-18T04:24:08;-5.20;99.90
16417;DHT22;8317;52.186;5.688;2022-12-18T04:26:35;-5.20;99.90
16417;DHT22;8317;52.186;5.688;2022-12-18T04:29:04;-5.20;99.90
16417;DHT22;8317;52.186;5.688;2022-12-18T04:31:31;-5.30;99.90
16417;DHT22;8317;52.186;5.688;2022-12-18T04:34:00;-5.30;99.90
16417;DHT22;8317;52.186;5.688;2022-12-18T04:36:29;-5.30;99.90
16417;DHT22;8317;52.186;5.688;2022-12-18T04:38:56;-5.30;99.90
16417;DHT22;8317;52.186;5.688;2022-12-18T04:41:22;-5.30;99.90
16417;DHT22;8317;52.186;5.688;2022-12-18T04:43:49;-5.20;99.90
16417;DHT22;8317;52.186;5.688;2022-12-18T04:46:16;-5.20;99.90
16417;DHT22;8317;52.186;5.688;2022-12-18T04:48:45;-5.20;99.90
16417;DHT22;8317;52.186;5.688;2022-12-18T04:51:13;-5.20;99.90
16417;DHT22;8317;52.186;5.688;2022-12-18T04:53:41;-5.10;99.90
16417;DHT22;8317;52.186;5.688;2022-12-18T04:56:10;-5.10;99.90
16417;DHT22;8317;52.186;5.688;2022-12-18T04:58:38;-5.20;99.90
16417;DHT22;8317;52.186;5.688;2022-12-18T05:01:06;-5.10;99.90
16417;DHT22;8317;52.186;5.688;2022-12-18T05:03:34;-5.10;99.90
16417;DHT22;8317;52.186;5.688;2022-12-18T05:06:01;-5.10;99.90
16417;DHT22;8317;52.186;5.688;2022-12-18T05:08:29;-5.00;99.90
16417;DHT22;8317;52.186;5.688;2022-12-18T05:11:02;-5.00;99.90
16417;DHT22;8317;52.186;5.688;2022-12-18T05:13:29;-5.00;99.90
16417;DHT22;8317;52.186;5.688;2022-12-18T05:15:56;-5.00;99.90
16417;DHT22;8317;52.186;5.688;2022-12-18T05:18:23;-5.00;99.90
16417;DHT22;8317;52.186;5.688;2022-12-18T05:20:50;-4.90;99.90
16417;DHT22;8317;52.186;5.688;2022-12-18T05:23:18;-4.90;99.90
16417;DHT22;8317;52.186;5.688;2022-12-18T05:25:50;-4.90;99.90
16417;DHT22;8317;52.186;5.688;2022-12-18T05:28:18;-4.90;99.90
16417;DHT22;8317;52.186;5.688;2022-12-18T05:30:48;-4.80;99.90
16417;DHT22;8317;52.186;5.688;2022-12-18T05:33:16;-4.90;99.90
16417;DHT22;8317;52.186;5.688;2022-12-18T05:35:43;-4.80;99.90
16417;DHT22;8317;52.186;5.688;2022-12-18T05:38:09;-4.90;99.90
16417;DHT22;8317;52.186;5.688;2022-12-18T05:40:36;-4.90;99.90
16417;DHT22;8317;52.186;5.688;2022-12-18T05:43:04;-4.90;99.90
16417;DHT22;8317;52.186;5.688;2022-12-18T05:45:36;-4.80;99.90
16417;DHT22;8317;52.186;5.688;2022-12-18T05:48:03;-4.80;99.90
16417;DHT22;8317;52.186;5.688;2022-12-18T05:50:30;-4.90;99.90
16417;DHT22;8317;52.186;5.688;2022-12-18T05:52:59;-4.90;99.90
16417;DHT22;8317;52.186;5.688;2022-12-18T05:55:26;-4.90;99.90
16417;DHT22;8317;52.186;5.688;2022-12-18T05:57:53;-5.00;99.90
16417;DHT22;8317;52.186;5.688;2022-12-18T06:00:20;-4.90;99.90
16417;DHT22;8317;52.186;5.688;2022-12-18T06:02:49;-5.00;99.90
16417;DHT22;8317;52.186;5.688;2022-12-18T06:05:16;-4.90;99.90
16417;DHT22;8317;52.186;5.688;2022-12-18T06:07:43;-5.00;99.90
16417;DHT22;8317;52.186;5.688;2022-12-18T06:10:10;-4.90;99.90
16417;DHT22;8317;52.186;5.688;2022-12-18T06:12:37;-4.90;99.90
16417;DHT22;8317;52.186;5.688;2022-12-18T06:15:05;-4.90;99.90
16417;DHT22;8317;52.186;5.688;2022-12-18T06:17:33;-5.00;99.90
16417;DHT22;8317;52.186;5.688;2022-12-18T06:20:01;-5.00;99.90
16417;DHT22;8317;52.186;5.688;2022-12-18T06:22:30;-5.00;99.90
16417;DHT22;8317;52.186;5.688;2022-12-18T06:24:57;-5.00;99.90
16417;DHT22;8317;52.186;5.688;2022-12-18T06:27:25;-4.90;99.90
16417;DHT22;8317;52.186;5.688;2022-12-18T06:29:51;-4.90;99.90
16417;DHT22;8317;52.186;5.688;2022-12-18T06:32:18;-4.90;99.90
16417;DHT22;8317;52.186;5.688;2022-12-18T06:34:45;-4.90;99.90
16417;DHT22;8317;52.186;5.688;2022-12-18T06:37:13;-4.90;99.90
16417;DHT22;8317;52.186;5.688;2022-12-18T06:39:40;-4.80;99.90
16417;DHT22;8317;52.186;5.688;2022-12-18T06:42:07;-4.80;99.90
16417;DHT22;8317;52.186;5.688;2022-12-18T06:44:34;-4.80;99.90
16417;DHT22;8317;52.186;5.688;2022-12-18T06:47:01;-4.80;99.90
16417;DHT22;8317;52.186;5.688;2022-12-18T06:49:28;-4.70;99.90
16417;DHT22;8317;52.186;5.688;2022-12-18T06:51:55;-4.70;99.90
16417;DHT22;8317;52.186;5.688;2022-12-18T06:54:23;-4.70;99.90
16417;DHT22;8317;52.186;5.688;2022-12-18T06:56:50;-4.60;99.90
16417;DHT22;8317;52.186;5.688;2022-12-18T06:59:17;-4.60;99.90
16417;DHT22;8317;52.186;5.688;2022-12-18T07:01:44;-4.60;99.90
16417;DHT22;8317;52.186;5.688;2022-12-18T07:04:11;-4.60;99.90
16417;DHT22;8317;52.186;5.688;2022-12-18T07:06:38;-4.60;99.90
16417;DHT22;8317;52.186;5.688;2022-12-18T07:09:05;-4.50;99.90
16417;DHT22;8317;52.186;5.688;2022-12-18T07:11:33;-4.50;99.90
16417;DHT22;8317;52.186;5.688;2022-12-18T07:14:00;-4.50;99.90
16417;DHT22;8317;52.186;5.688;2022-12-18T07:16:27;-4.50;99.90
16417;DHT22;8317;52.186;5.688;2022-12-18T07:18:55;-4.50;99.90
16417;DHT22;8317;52.186;5.688;2022-12-18T07:21:23;-4.40;99.90
16417;DHT22;8317;52.186;5.688;2022-12-18T07:23:50;-4.40;99.90
16417;DHT22;8317;52.186;5.688;2022-12-18T07:26:20;-4.40;99.90
16417;DHT22;8317;52.186;5.688;2022-12-18T07:28:49;-4.40;99.90
16417;DHT22;8317;52.186;5.688;2022-12-18T07:31:18;-4.40;99.90
16417;DHT22;8317;52.186;5.688;2022-12-18T07:33:45;-4.40;99.90
16417;DHT22;8317;52.186;5.688;2022-12-18T07:36:13;-4.30;99.90
16417;DHT22;8317;52.186;5.688;2022-12-18T07:38:41;-4.30;99.90
16417;DHT22;8317;52.186;5.688;2022-12-18T07:41:09;-4.30;99.90
16417;DHT22;8317;52.186;5.688;2022-12-18T07:43:38;-4.20;99.90
16417;DHT22;8317;52.186;5.688;2022-12-18T07:46:07;-4.10;99.90
16417;DHT22;8317;52.186;5.688;2022-12-18T07:48:35;-4.00;99.90
16417;DHT22;8317;52.186;5.688;2022-12-18T07:51:03;-4.00;99.90
16417;DHT22;8317;52.186;5.688;2022-12-18T07:53:31;-3.90;99.90
16417;DHT22;8317;52.186;5.688;2022-12-18T07:55:59;-3.90;99.90
16417;DHT22;8317;52.186;5.688;2022-12-18T07:58:28;-3.80;99.90
16417;DHT22;8317;52.186;5.688;2022-12-18T08:01:02;-3.80;99.90
16417;DHT22;8317;52.186;5.688;2022-12-18T08:03:30;-3.80;99.90
16417;DHT22;8317;52.186;5.688;2022-12-18T08:05:59;-3.70;99.90
16417;DHT22;8317;52.186;5.688;2022-12-18T08:08:26;-3.70;99.90
16417;DHT22;8317;52.186;5.688;2022-12-18T08:10:53;-3.60;99.90
16417;DHT22;8317;52.186;5.688;2022-12-18T08:13:20;-3.60;99.90
16417;DHT22;8317;52.186;5.688;2022-12-18T08:15:55;-3.50;99.90
16417;DHT22;8317;52.186;5.688;2022-12-18T08:18:22;-3.50;99.90
16417;DHT22;8317;52.186;5.688;2022-12-18T08:20:51;-3.40;99.90
16417;DHT22;8317;52.186;5.688;2022-12-18T08:23:18;-3.30;99.90
16417;DHT22;8317;52.186;5.688;2022-12-18T08:25:45;-3.20;99.90
16417;DHT22;8317;52.186;5.688;2022-12-18T08:28:12;-3.20;99.90
16417;DHT22;8317;52.186;5.688;2022-12-18T08:30:39;-3.10;99.90
16417;DHT22;8317;52.186;5.688;2022-12-18T08:33:06;-3.00;99.90
16417;DHT22;8317;52.186;5.688;2022-12-18T08:35:35;-2.90;99.90
16417;DHT22;8317;52.186;5.688;2022-12-18T08:38:03;-2.80;99.90
16417;DHT22;8317;52.186;5.688;2022-12-18T08:40:30;-2.70;99.90
16417;DHT22;8317;52.186;5.688;2022-12-18T08:42:57;-2.60;99.90
16417;DHT22;8317;52.186;5.688;2022-12-18T08:45:42;-2.60;99.90
16417;DHT22;8317;52.186;5.688;2022-12-18T08:48:09;-2.50;99.90
16417;DHT22;8317;52.186;5.688;2022-12-18T08:50:37;-2.40;99.90
16417;DHT22;8317;52.186;5.688;2022-12-18T08:53:06;-2.40;99.90
16417;DHT22;8317;52.186;5.688;2022-12-18T08:55:33;-2.40;99.90
16417;DHT22;8317;52.186;5.688;2022-12-18T08:58:00;-2.40;99.90
16417;DHT22;8317;52.186;5.688;2022-12-18T09:00:27;-2.40;99.90
16417;DHT22;8317;52.186;5.688;2022-12-18T09:02:54;-2.30;99.90
16417;DHT22;8317;52.186;5.688;2022-12-18T09:05:20;-2.30;99.90
16417;DHT22;8317;52.186;5.688;2022-12-18T09:07:47;-2.20;99.90
16417;DHT22;8317;52.186;5.688;2022-12-18T09:10:16;-2.10;99.90
16417;DHT22;8317;52.186;5.688;2022-12-18T09:12:43;-2.00;99.90
16417;DHT22;8317;52.186;5.688;2022-12-18T09:15:10;-1.90;99.90
16417;DHT22;8317;52.186;5.688;2022-12-18T09:17:37;-1.80;99.90
16417;DHT22;8317;52.186;5.688;2022-12-18T09:20:04;-1.90;99.90
16417;DHT22;8317;52.186;5.688;2022-12-18T09:22:31;-1.80;99.90
16417;DHT22;8317;52.186;5.688;2022-12-18T09:24:58;-1.80;99.90
16417;DHT22;8317;52.186;5.688;2022-12-18T09:27:27;-1.80;99.90
16417;DHT22;8317;52.186;5.688;2022-12-18T09:29:53;-1.70;99.90
16417;DHT22;8317;52.186;5.688;2022-12-18T09:32:21;-1.70;99.90
16417;DHT22;8317;52.186;5.688;2022-12-18T09:34:47;-1.70;99.90
16417;DHT22;8317;52.186;5.688;2022-12-18T09:37:14;-1.70;99.90
16417;DHT22;8317;52.186;5.688;2022-12-18T09:39:41;-1.60;99.90
16417;DHT22;8317;52.186;5.688;2022-12-18T09:42:14;-1.60;99.90
16417;DHT22;8317;52.186;5.688;2022-12-18T09:44:50;-1.60;99.90
16417;DHT22;8317;52.186;5.688;2022-12-18T09:47:19;-1.60;99.90
16417;DHT22;8317;52.186;5.688;2022-12-18T09:49:52;-1.50;99.90
16417;DHT22;8317;52.186;5.688;2022-12-18T09:52:23;-1.50;99.90
16417;DHT22;8317;52.186;5.688;2022-12-18T09:54:53;-1.40;99.90
16417;DHT22;8317;52.186;5.688;2022-12-18T09:57:23;-1.50;99.90
16417;DHT22;8317;52.186;5.688;2022-12-18T09:59:55;-1.40;99.90
16417;DHT22;8317;52.186;5.688;2022-12-18T10:02:24;-1.40;99.90
16417;DHT22;8317;52.186;5.688;2022-12-18T10:05:04;-1.40;99.90
16417;DHT22;8317;52.186;5.688;2022-12-18T10:07:47;-1.30;99.90
16417;DHT22;8317;52.186;5.688;2022-12-18T10:10:26;-1.40;99.90
16417;DHT22;8317;52.186;5.688;2022-12-18T10:13:02;-1.30;99.90
16417;DHT22;8317;52.186;5.688;2022-12-18T10:15:38;-1.30;99.90
16417;DHT22;8317;52.186;5.688;2022-12-18T10:18:17;-1.30;99.90
16417;DHT22;8317;52.186;5.688;2022-12-18T10:20:49;-1.20;99.90
16417;DHT22;8317;52.186;5.688;2022-12-18T10:23:24;-1.20;99.90
16417;DHT22;8317;52.186;5.688;2022-12-18T10:25:55;-1.20;99.90
16417;DHT22;8317;52.186;5.688;2022-12-18T10:28:26;-1.10;99.90
16417;DHT22;8317;52.186;5.688;2022-12-18T10:30:54;-1.10;99.90
16417;DHT22;8317;52.186;5.688;2022-12-18T10:33:23;-1.00;99.90
16417;DHT22;8317;52.186;5.688;2022-12-18T10:35:50;-1.00;99.90
16417;DHT22;8317;52.186;5.688;2022-12-18T10:38:24;-1.00;99.90
16417;DHT22;8317;52.186;5.688;2022-12-18T10:40:54;-1.00;99.90
16417;DHT22;8317;52.186;5.688;2022-12-18T10:43:24;-1.00;99.90
16417;DHT22;8317;52.186;5.688;2022-12-18T10:46:01;-1.00;99.90
16417;DHT22;8317;52.186;5.688;2022-12-18T10:48:30;-0.90;99.90
16417;DHT22;8317;52.186;5.688;2022-12-18T10:51:00;-1.00;99.90
16417;DHT22;8317;52.186;5.688;2022-12-18T10:53:30;-0.90;99.90
16417;DHT22;8317;52.186;5.688;2022-12-18T10:55:58;-0.90;99.90
16417;DHT22;8317;52.186;5.688;2022-12-18T10:58:27;-0.90;99.90
16417;DHT22;8317;52.186;5.688;2022-12-18T11:01:10;-0.80;99.90
16417;DHT22;8317;52.186;5.688;2022-12-18T11:03:39;-0.80;99.90
16417;DHT22;8317;52.186;5.688;2022-12-18T11:06:10;-0.70;99.90
16417;DHT22;8317;52.186;5.688;2022-12-18T11:08:37;-0.70;99.90
16417;DHT22;8317;52.186;5.688;2022-12-18T11:11:07;-0.70;99.90
16417;DHT22;8317;52.186;5.688;2022-12-18T11:13:51;-0.70;99.90
16417;DHT22;8317;52.186;5.688;2022-12-18T11:16:24;-0.70;99.90
16417;DHT22;8317;52.186;5.688;2022-12-18T11:18:51;-0.60;99.90
16417;DHT22;8317;52.186;5.688;2022-12-18T11:21:18;-0.60;99.90
16417;DHT22;8317;52.186;5.688;2022-12-18T11:23:48;-0.60;99.90
16417;DHT22;8317;52.186;5.688;2022-12-18T11:26:16;-0.50;99.90
16417;DHT22;8317;52.186;5.688;2022-12-18T11:28:46;-0.50;99.90
16417;DHT22;8317;52.186;5.688;2022-12-18T11:31:24;-0.50;99.90
16417;DHT22;8317;52.186;5.688;2022-12-18T11:33:56;-0.40;99.90
16417;DHT22;8317;52.186;5.688;2022-12-18T11:36:26;-0.40;99.90
16417;DHT22;8317;52.186;5.688;2022-12-18T11:38:55;-0.40;99.90
16417;DHT22;8317;52.186;5.688;2022-12-18T11:41:28;-0.30;99.90
16417;DHT22;8317;52.186;5.688;2022-12-18T11:44:14;-0.30;99.90
16417;DHT22;8317;52.186;5.688;2022-12-18T11:46:47;-0.20;99.90
16417;DHT22;8317;52.186;5.688;2022-12-18T11:49:20;-0.20;99.90
16417;DHT22;8317;52.186;5.688;2022-12-18T11:51:51;-0.10;99.90
16417;DHT22;8317;52.186;5.688;2022-12-18T11:54:22;-0.10;99.90
16417;DHT22;8317;52.186;5.688;2022-12-18T11:56:53;0.00;99.90
16417;DHT22;8317;52.186;5.688;2022-12-18T11:59:30;-0.10;99.90
16417;DHT22;8317;52.186;5.688;2022-12-18T12:02:10;0.00;99.90
16417;DHT22;8317;52.186;5.688;2022-12-18T12:05:04;0.00;99.90
16417;DHT22;8317;52.186;5.688;2022-12-18T12:07:39;0.10;99.90
16417;DHT22;8317;52.186;5.688;2022-12-18T12:10:19;0.10;99.90
16417;DHT22;8317;52.186;5.688;2022-12-18T12:13:00;0.10;99.90
16417;DHT22;8317;52.186;5.688;2022-12-18T12:15:34;0.20;99.90
16417;DHT22;8317;52.186;5.688;2022-12-18T12:18:12;0.20;99.90
16417;DHT22;8317;52.186;5.688;2022-12-18T12:20:47;0.20;99.90
16417;DHT22;8317;52.186;5.688;2022-12-18T12:23:23;0.20;99.90
16417;DHT22;8317;52.186;5.688;2022-12-18T12:25:57;0.30;99.90
16417;DHT22;8317;52.186;5.688;2022-12-18T12:31:24;0.30;99.90
16417;DHT22;8317;52.186;5.688;2022-12-18T12:34:00;0.30;99.90
16417;DHT22;8317;52.186;5.688;2022-12-18T12:36:35;0.30;99.90
16417;DHT22;8317;52.186;5.688;2022-12-18T12:39:09;0.30;99.90
16417;DHT22;8317;52.186;5.688;2022-12-18T12:41:39;0.30;99.90
16417;DHT22;8317;52.186;5.688;2022-12-18T12:44:27;0.40;99.90
16417;DHT22;8317;52.186;5.688;2022-12-18T12:46:58;0.40;99.90
16417;DHT22;8317;52.186;5.688;2022-12-18T12:49:30;0.40;99.90
16417;DHT22;8317;52.186;5.688;2022-12-18T12:52:05;0.40;99.90
16417;DHT22;8317;52.186;5.688;2022-12-18T12:54:34;0.40;99.90
16417;DHT22;8317;52.186;5.688;2022-12-18T12:57:07;0.50;99.90
16417;DHT22;8317;52.186;5.688;2022-12-18T12:59:47;0.50;99.90
16417;DHT22;8317;52.186;5.688;2022-12-18T13:02:20;0.50;99.90
16417;DHT22;8317;52.186;5.688;2022-12-18T13:04:52;0.50;99.90
16417;DHT22;8317;52.186;5.688;2022-12-18T13:07:26;0.50;99.90
16417;DHT22;8317;52.186;5.688;2022-12-18T13:10:22;0.60;99.90
16417;DHT22;8317;52.186;5.688;2022-12-18T13:12:57;0.60;99.90
16417;DHT22;8317;52.186;5.688;2022-12-18T13:15:28;0.60;99.90
16417;DHT22;8317;52.186;5.688;2022-12-18T13:18:14;0.60;99.90
16417;DHT22;8317;52.186;5.688;2022-12-18T13:20:45;0.60;99.90
16417;DHT22;8317;52.186;5.688;2022-12-18T13:23:31;0.60;99.90
16417;DHT22;8317;52.186;5.688;2022-12-18T13:26:00;0.60;99.90
16417;DHT22;8317;52.186;5.688;2022-12-18T13:28:51;0.60;99.90
16417;DHT22;8317;52.186;5.688;2022-12-18T13:34:36;0.70;99.90
16417;DHT22;8317;52.186;5.688;2022-12-18T13:37:41;0.70;99.90
16417;DHT22;8317;52.186;5.688;2022-12-18T13:40:53;0.70;99.90
16417;DHT22;8317;52.186;5.688;2022-12-18T13:43:33;0.70;99.90
16417;DHT22;8317;52.186;5.688;2022-12-18T13:46:21;0.70;99.90
16417;DHT22;8317;52.186;5.688;2022-12-18T13:48:52;0.70;99.90
16417;DHT22;8317;52.186;5.688;2022-12-18T13:51:21;0.70;99.90
16417;DHT22;8317;52.186;5.688;2022-12-18T13:53:51;0.70;99.90
16417;DHT22;8317;52.186;5.688;2022-12-18T13:56:23;0.70;99.90
16417;DHT22;8317;52.186;5.688;2022-12-18T13:59:09;0.70;99.90
16417;DHT22;8317;52.186;5.688;2022-12-18T14:01:42;0.70;99.90
16417;DHT22;8317;52.186;5.688;2022-12-18T14:04:10;0.70;99.90
16417;DHT22;8317;52.186;5.688;2022-12-18T14:06:38;0.70;99.90
16417;DHT22;8317;52.186;5.688;2022-12-18T14:09:08;0.70;99.90
16417;DHT22;8317;52.186;5.688;2022-12-18T14:11:37;0.70;99.90
16417;DHT22;8317;52.186;5.688;2022-12-18T14:14:05;0.70;99.90
16417;DHT22;8317;52.186;5.688;2022-12-18T14:16:34;0.70;99.90
16417;DHT22;8317;52.186;5.688;2022-12-18T14:19:01;0.70;99.90
16417;DHT22;8317;52.186;5.688;2022-12-18T14:21:29;0.70;99.90
16417;DHT22;8317;52.186;5.688;2022-12-18T14:24:14;0.70;99.90
16417;DHT22;8317;52.186;5.688;2022-12-18T14:26:42;0.70;99.90
16417;DHT22;8317;52.186;5.688;2022-12-18T14:29:22;0.70;99.90
16417;DHT22;8317;52.186;5.688;2022-12-18T14:32:15;0.70;99.90
16417;DHT22;8317;52.186;5.688;2022-12-18T14:34:43;0.80;99.90
16417;DHT22;8317;52.186;5.688;2022-12-18T14:37:10;0.80;99.90
16417;DHT22;8317;52.186;5.688;2022-12-18T14:39:39;0.80;99.90
16417;DHT22;8317;52.186;5.688;2022-12-18T14:42:10;0.80;99.90
16417;DHT22;8317;52.186;5.688;2022-12-18T14:44:37;0.70;99.90
16417;DHT22;8317;52.186;5.688;2022-12-18T14:47:04;0.80;99.90
16417;DHT22;8317;52.186;5.688;2022-12-18T14:49:32;0.70;99.90
16417;DHT22;8317;52.186;5.688;2022-12-18T14:52:00;0.80;99.90
16417;DHT22;8317;52.186;5.688;2022-12-18T14:54:28;0.80;99.90
16417;DHT22;8317;52.186;5.688;2022-12-18T14:57:00;0.80;99.90
16417;DHT22;8317;52.186;5.688;2022-12-18T14:59:30;0.80;99.90
16417;DHT22;8317;52.186;5.688;2022-12-18T15:02:01;0.80;99.90
16417;DHT22;8317;52.186;5.688;2022-12-18T15:04:31;0.70;99.90
16417;DHT22;8317;52.186;5.688;2022-12-18T15:07:12;0.70;99.90
16417;DHT22;8317;52.186;5.688;2022-12-18T15:09:40;0.70;99.90
16417;DHT22;8317;52.186;5.688;2022-12-18T15:12:22;0.80;99.90
16417;DHT22;8317;52.186;5.688;2022-12-18T15:14:51;0.80;99.90
16417;DHT22;8317;52.186;5.688;2022-12-18T15:17:20;0.80;99.90
16417;DHT22;8317;52.186;5.688;2022-12-18T15:19:49;0.80;99.90
16417;DHT22;8317;52.186;5.688;2022-12-18T15:22:24;0.80;99.90
16417;DHT22;8317;52.186;5.688;2022-12-18T15:24:52;0.80;99.90
16417;DHT22;8317;52.186;5.688;2022-12-18T15:27:24;0.80;99.90
16417;DHT22;8317;52.186;5.688;2022-12-18T15:30:23;0.80;99.90
16417;DHT22;8317;52.186;5.688;2022-12-18T15:32:51;0.70;99.90
16417;DHT22;8317;52.186;5.688;2022-12-18T15:35:22;0.80;99.90
16417;DHT22;8317;52.186;5.688;2022-12-18T15:37:50;0.80;99.90
16417;DHT22;8317;52.186;5.688;2022-12-18T15:40:19;0.90;99.90
16417;DHT22;8317;52.186;5.688;2022-12-18T15:42:48;0.90;99.90
16417;DHT22;8317;52.186;5.688;2022-12-18T15:45:33;0.90;99.90
16417;DHT22;8317;52.186;5.688;2022-12-18T15:48:00;0.90;99.90
16417;DHT22;8317;52.186;5.688;2022-12-18T15:50:29;0.90;99.90
16417;DHT22;8317;52.186;5.688;2022-12-18T15:52:56;0.90;99.90
16417;DHT22;8317;52.186;5.688;2022-12-18T15:55:24;0.90;99.90
16417;DHT22;8317;52.186;5.688;2022-12-18T15:58:10;0.90;99.90
16417;DHT22;8317;52.186;5.688;2022-12-18T16:00:39;0.90;99.90
16417;DHT22;8317;52.186;5.688;2022-12-18T16:03:06;0.80;99.90
16417;DHT22;8317;52.186;5.688;2022-12-18T16:05:35;0.80;99.90
16417;DHT22;8317;52.186;5.688;2022-12-18T16:08:01;0.80;99.90
16417;DHT22;8317;52.186;5.688;2022-12-18T16:10:28;0.80;99.90
16417;DHT22;8317;52.186;5.688;2022-12-18T16:12:55;0.80;99.90
16417;DHT22;8317;52.186;5.688;2022-12-18T16:15:24;0.90;99.90
16417;DHT22;8317;52.186;5.688;2022-12-18T16:17:50;0.80;99.90